Time;durP1;ratioP1;P1;durP2;ratioP2;P2;SDS_P1;SDS_P2;PMS_P1;PMS_P2;Temp;Humidity;BMP_temperature;BMP_pressure;BME280_temperature;BME280_humidity;BME280_pressure;Samples;Min_cycle;Max_cycle;Signal;HPM_P1;HPM_P2
2021/12/19 00:01:19;;;;;;;19.20;8.95;;;8.00;99.90;;;;;;5032762;28;20045;-56
2021/12/19 00:04:33;;;;;;;19.92;9.10;;;7.90;99.90;;;;;;5034884;28;20033;-54
2021/12/19 00:09:42;;;;;;;17.23;7.40;;;7.80;99.90;;;;;;5036496;28;20388;-55
2021/12/19 00:12:08;;;;;;;18.02;8.25;;;7.80;99.90;;;;;;5036117;28;20021;-57
2021/12/19 00:14:34;;;;;;;17.50;7.63;;;7.80;99.90;;;;;;5036111;28;20028;-52
2021/12/19 00:17:13;;;;;;;17.63;8.82;;;7.80;99.90;;;;;;5036177;28;20025;-57
2021/12/19 00:19:39;;;;;;;16.83;8.00;;;7.80;99.90;;;;;;5036418;28;20034;-57
2021/12/19 00:22:04;;;;;;;20.55;9.02;;;7.70;99.90;;;;;;5036105;28;20140;-58
2021/12/19 00:24:30;;;;;;;15.30;8.30;;;7.70;99.90;;;;;;5035165;28;20057;-56
2021/12/19 00:26:55;;;;;;;15.45;8.15;;;7.70;99.90;;;;;;5034508;28;20036;-52
2021/12/19 00:29:21;;;;;;;16.85;7.35;;;7.70;99.90;;;;;;5035957;28;20026;-55
2021/12/19 00:31:48;;;;;;;16.08;7.53;;;7.80;99.90;;;;;;5034801;28;20095;-52
2021/12/19 00:34:15;;;;;;;16.58;7.68;;;7.80;99.90;;;;;;5035753;28;20105;-58
2021/12/19 00:36:41;;;;;;;17.88;7.95;;;7.80;99.90;;;;;;5035744;28;20053;-58
2021/12/19 00:39:07;;;;;;;15.10;7.15;;;7.70;99.90;;;;;;5035708;28;20029;-57
2021/12/19 00:41:38;;;;;;;13.48;6.97;;;7.80;99.90;;;;;;5016219;28;20096;-57
2021/12/19 00:44:11;;;;;;;18.20;7.20;;;7.80;99.90;;;;;;5017208;28;20029;-58
2021/12/19 00:46:52;;;;;;;18.70;7.57;;;7.90;99.90;;;;;;5015819;28;20033;-51
2021/12/19 00:49:20;;;;;;;21.73;8.15;;;7.90;99.90;;;;;;5014824;28;20045;-56
2021/12/19 00:51:53;;;;;;;19.25;8.05;;;7.90;99.90;;;;;;5028464;28;20030;-56
2021/12/19 00:54:18;;;;;;;13.35;7.47;;;8.00;99.90;;;;;;5034545;28;20025;-54
2021/12/19 00:56:48;;;;;;;11.27;6.55;;;8.10;99.90;;;;;;5033487;28;20037;-58
2021/12/19 00:59:14;;;;;;;10.77;5.72;;;8.10;99.90;;;;;;5034261;28;20116;-58
2021/12/19 01:01:40;;;;;;;9.45;5.65;;;8.10;99.90;;;;;;5045336;28;20025;-58
2021/12/19 01:04:10;;;;;;;9.00;5.43;;;8.10;99.90;;;;;;5055254;28;20087;-58
2021/12/19 01:06:39;;;;;;;9.20;5.28;;;8.10;99.90;;;;;;5053863;28;20048;-56
2021/12/19 01:09:06;;;;;;;8.77;5.20;;;8.10;99.90;;;;;;5053972;28;20025;-55
2021/12/19 01:11:33;;;;;;;6.78;4.30;;;8.00;99.90;;;;;;5054321;28;20035;-52
2021/12/19 01:13:59;;;;;;;7.30;5.05;;;8.00;99.90;;;;;;5053624;28;20027;-53
2021/12/19 01:16:25;;;;;;;7.85;4.85;;;8.00;99.90;;;;;;5054992;28;20096;-50
2021/12/19 01:18:50;;;;;;;6.20;4.20;;;7.90;99.90;;;;;;5054023;28;20052;-51
2021/12/19 01:21:16;;;;;;;6.10;4.00;;;7.90;99.90;;;;;;5054896;28;20028;-51
2021/12/19 01:23:42;;;;;;;4.95;3.45;;;7.90;99.90;;;;;;5053923;28;20021;-49
2021/12/19 01:26:08;;;;;;;7.95;4.45;;;8.00;99.90;;;;;;5053400;28;20079;-50
2021/12/19 01:28:34;;;;;;;5.32;3.50;;;7.80;99.90;;;;;;5054133;28;20021;-50
2021/12/19 01:30:59;;;;;;;7.97;3.60;;;7.80;99.90;;;;;;5054709;28;20051;-51
2021/12/19 01:33:26;;;;;;;4.65;3.50;;;7.80;99.90;;;;;;5054719;28;20021;-52
2021/12/19 01:35:52;;;;;;;5.68;3.10;;;7.80;99.90;;;;;;5054564;28;20056;-52
2021/12/19 01:38:18;;;;;;;7.30;4.95;;;7.80;99.90;;;;;;5053622;28;20064;-51
2021/12/19 01:40:43;;;;;;;7.55;3.65;;;7.70;99.90;;;;;;5053590;28;20029;-52
2021/12/19 01:43:09;;;;;;;4.60;2.50;;;7.70;99.90;;;;;;5054447;28;20028;-51
2021/12/19 01:45:38;;;;;;;3.08;2.65;;;7.80;99.90;;;;;;5054506;28;20032;-50
2021/12/19 01:48:07;;;;;;;3.95;2.75;;;7.80;99.90;;;;;;5053259;28;20071;-54
2021/12/19 01:50:33;;;;;;;3.45;2.90;;;7.80;99.90;;;;;;5054388;28;20028;-52
2021/12/19 01:53:01;;;;;;;3.47;2.53;;;7.80;99.90;;;;;;5053034;28;20020;-52
2021/12/19 01:55:26;;;;;;;2.63;2.00;;;7.80;99.90;;;;;;5052907;28;20067;-53
2021/12/19 01:57:53;;;;;;;6.10;2.25;;;7.70;99.90;;;;;;5053234;28;20017;-51
2021/12/19 02:00:31;;;;;;;2.67;2.10;;;7.70;99.90;;;;;;5054722;28;20487;-51
2021/12/19 02:02:58;;;;;;;3.50;2.80;;;7.80;99.90;;;;;;5054216;28;20029;-51
2021/12/19 02:05:25;;;;;;;2.90;2.40;;;7.70;99.90;;;;;;5053895;28;20063;-52
2021/12/19 02:07:52;;;;;;;3.47;2.58;;;7.70;99.90;;;;;;5053091;28;20028;-53
2021/12/19 02:10:23;;;;;;;3.20;2.33;;;7.60;99.90;;;;;;5052734;28;20039;-52
2021/12/19 02:12:50;;;;;;;2.75;2.10;;;7.60;99.90;;;;;;5052868;28;20074;-49
2021/12/19 02:15:20;;;;;;;2.95;2.50;;;7.60;99.90;;;;;;5053889;28;20024;-52
2021/12/19 02:17:47;;;;;;;3.10;2.70;;;7.50;99.90;;;;;;5053879;28;20392;-52
2021/12/19 02:20:15;;;;;;;4.60;3.67;;;7.50;99.90;;;;;;5053861;28;20096;-51
2021/12/19 02:22:40;;;;;;;4.85;3.38;;;7.50;99.90;;;;;;5053443;28;20018;-49
2021/12/19 02:25:07;;;;;;;3.35;2.72;;;7.50;99.90;;;;;;5052008;28;20028;-52
2021/12/19 02:27:33;;;;;;;2.78;2.50;;;7.50;99.90;;;;;;5053578;28;20064;-52
2021/12/19 02:29:58;;;;;;;6.60;3.03;;;7.50;99.90;;;;;;5053936;28;20025;-51
2021/12/19 02:32:26;;;;;;;4.45;2.50;;;7.40;99.90;;;;;;5052310;28;20025;-50
2021/12/19 02:34:54;;;;;;;4.05;2.95;;;7.50;99.90;;;;;;5052308;28;20033;-50
2021/12/19 02:48:56;;;;;;;5.60;3.03;;;7.50;99.90;;;;;;5054041;28;20100;-51
2021/12/19 02:51:23;;;;;;;6.97;3.83;;;7.50;99.90;;;;;;5053835;28;20049;-50
2021/12/19 02:53:49;;;;;;;20.60;11.10;;;7.50;99.90;;;;;;5053455;28;20013;-51
2021/12/19 02:56:14;;;;;;;8.60;4.82;;;7.40;99.90;;;;;;5053350;28;20021;-52
2021/12/19 02:58:42;;;;;;;8.20;4.45;;;7.40;99.90;;;;;;5051947;28;20021;-49
2021/12/19 03:01:15;;;;;;;8.88;4.55;;;7.40;99.90;;;;;;5052096;28;20036;-51
2021/12/19 03:03:41;;;;;;;8.80;5.22;;;7.40;99.90;;;;;;5053206;28;20021;-52
2021/12/19 03:06:07;;;;;;;11.52;4.55;;;7.40;99.90;;;;;;5053277;28;20032;-54
2021/12/19 03:08:34;;;;;;;9.00;4.72;;;7.40;99.90;;;;;;5053200;28;20025;-50
2021/12/19 03:19:13;;;;;;;7.90;4.88;;;7.40;99.90;;;;;;5053689;28;20032;-49
2021/12/19 03:21:41;;;;;;;6.85;4.03;;;7.30;99.90;;;;;;5051879;28;20201;-50
2021/12/19 03:24:07;;;;;;;7.38;4.95;;;7.30;99.90;;;;;;5052057;28;20028;-55
2021/12/19 03:26:33;;;;;;;9.15;4.53;;;7.40;99.90;;;;;;5051605;28;20025;-52
2021/12/19 03:28:58;;;;;;;8.90;4.78;;;7.30;99.90;;;;;;5052250;28;20024;-56
2021/12/19 03:31:24;;;;;;;10.30;5.03;;;7.30;99.90;;;;;;5051722;28;20028;-52
2021/12/19 03:33:49;;;;;;;8.80;4.25;;;7.40;99.90;;;;;;5052832;28;20025;-51
2021/12/19 03:36:15;;;;;;;9.20;4.57;;;7.30;99.90;;;;;;5054151;28;20119;-51
2021/12/19 03:38:43;;;;;;;6.90;4.32;;;7.30;99.90;;;;;;5055547;28;20021;-52
2021/12/19 03:41:22;;;;;;;6.90;3.90;;;7.30;99.90;;;;;;5055541;28;20021;-52
2021/12/19 03:43:49;;;;;;;8.43;4.32;;;7.30;99.90;;;;;;5055417;28;20047;-53
2021/12/19 03:46:15;;;;;;;6.85;4.13;;;7.30;99.90;;;;;;5056158;28;20025;-49
2021/12/19 03:48:41;;;;;;;8.93;4.35;;;7.30;99.90;;;;;;5056064;28;20029;-51
2021/12/19 03:51:08;;;;;;;7.85;3.70;;;7.20;99.90;;;;;;5055204;28;20029;-49
2021/12/19 03:53:34;;;;;;;8.98;4.50;;;7.30;99.90;;;;;;5056613;28;20012;-54
2021/12/19 03:56:00;;;;;;;8.90;4.72;;;7.30;99.90;;;;;;5055197;28;20083;-51
2021/12/19 03:58:25;;;;;;;9.55;4.78;;;7.30;99.90;;;;;;5056465;28;20040;-50
2021/12/19 04:00:53;;;;;;;7.57;3.88;;;7.30;99.90;;;;;;5055448;28;20388;-50
2021/12/19 04:03:20;;;;;;;8.90;4.45;;;7.30;99.90;;;;;;5055104;28;20123;-51
2021/12/19 04:05:48;;;;;;;8.18;4.40;;;7.30;99.90;;;;;;5056066;28;20029;-52
2021/12/19 04:08:15;;;;;;;7.47;4.40;;;7.30;99.90;;;;;;5055347;28;20104;-50
2021/12/19 04:10:41;;;;;;;7.50;4.45;;;7.30;99.90;;;;;;5056292;28;20028;-51
2021/12/19 04:13:07;;;;;;;7.97;5.07;;;7.30;99.90;;;;;;5054995;28;20025;-51
2021/12/19 04:15:33;;;;;;;10.38;4.88;;;7.30;99.90;;;;;;5055190;28;20021;-50
2021/12/19 04:17:59;;;;;;;8.68;4.53;;;7.40;99.90;;;;;;5054852;28;20017;-53
2021/12/19 04:20:25;;;;;;;6.95;4.00;;;7.40;99.90;;;;;;5056083;28;20028;-51
2021/12/19 04:22:51;;;;;;;7.72;3.90;;;7.40;99.90;;;;;;5056046;28;20017;-50
2021/12/19 04:25:17;;;;;;;10.77;5.07;;;7.40;99.90;;;;;;5056032;28;20028;-50
2021/12/19 04:27:44;;;;;;;9.05;4.15;;;7.40;99.90;;;;;;5054716;28;20054;-50
2021/12/19 04:30:13;;;;;;;8.82;4.13;;;7.50;99.90;;;;;;5054659;28;20025;-51
2021/12/19 04:32:45;;;;;;;11.80;5.55;;;7.50;99.90;;;;;;5054656;28;20463;-51
2021/12/19 04:35:12;;;;;;;8.40;4.30;;;7.50;99.90;;;;;;5055708;28;20017;-49
2021/12/19 04:40:29;;;;;;;7.20;4.00;;;7.40;99.90;;;;;;5055727;28;20036;-51
2021/12/19 04:51:43;;;;;;;9.07;5.05;;;7.30;99.90;;;;;;5056185;28;20108;-51
2021/12/19 04:56:29;;;;;;;11.80;4.57;;;7.40;99.90;;;;;;5055777;28;20085;-49
2021/12/19 05:14:37;;;;;;;10.70;5.35;;;7.30;99.90;;;;;;5055252;28;20039;-55
2021/12/19 05:17:10;;;;;;;15.48;6.72;;;7.30;99.90;;;;;;5054823;28;20025;-51
2021/12/19 05:20:06;;;;;;;10.50;5.07;;;7.30;99.90;;;;;;5055339;28;20017;-52
2021/12/19 05:22:36;;;;;;;9.10;4.82;;;7.30;99.90;;;;;;5054982;28;20017;-51
2021/12/19 05:25:14;;;;;;;11.25;5.43;;;7.40;99.90;;;;;;5053589;28;20179;-48
2021/12/19 05:27:44;;;;;;;14.60;5.10;;;7.30;99.90;;;;;;5054788;28;20025;-53
2021/12/19 05:30:12;;;;;;;11.60;4.82;;;7.40;99.90;;;;;;5054717;28;20036;-51
2021/12/19 05:32:39;;;;;;;10.00;4.82;;;7.40;99.90;;;;;;5054959;28;20021;-53
2021/12/19 05:35:06;;;;;;;10.15;4.85;;;7.40;99.90;;;;;;5053629;28;20024;-50
2021/12/19 05:45:44;;;;;;;11.57;5.47;;;7.40;99.90;;;;;;5054842;28;20079;-54
2021/12/19 05:48:09;;;;;;;13.85;5.03;;;7.40;99.90;;;;;;5053122;28;20024;-51
2021/12/19 05:50:37;;;;;;;11.55;5.65;;;7.40;99.90;;;;;;5054443;28;20434;-49
2021/12/19 05:53:03;;;;;;;11.52;6.00;;;7.50;99.90;;;;;;5054360;28;20024;-53
2021/12/19 05:55:28;;;;;;;12.52;6.30;;;7.50;99.90;;;;;;5052859;28;20025;-55
2021/12/19 05:57:54;;;;;;;26.38;9.55;;;7.50;99.90;;;;;;5052854;28;20103;-55
2021/12/19 06:00:20;;;;;;;12.18;5.40;;;7.50;99.90;;;;;;5052033;28;20029;-49
2021/12/19 06:02:45;;;;;;;11.20;5.10;;;7.50;99.90;;;;;;5052864;28;20103;-53
2021/12/19 06:05:12;;;;;;;15.07;6.07;;;7.50;99.90;;;;;;5054010;28;20083;-51
2021/12/19 06:07:38;;;;;;;12.65;6.65;;;7.50;99.90;;;;;;5053996;28;20047;-51
2021/12/19 06:10:05;;;;;;;11.32;5.05;;;7.50;99.90;;;;;;5053051;28;20029;-55
2021/12/19 06:12:31;;;;;;;14.18;5.78;;;7.50;99.90;;;;;;5052722;28;20028;-50
2021/12/19 06:14:58;;;;;;;14.30;5.95;;;7.40;99.90;;;;;;5053690;28;20035;-49
2021/12/19 06:17:23;;;;;;;13.68;5.93;;;7.40;99.90;;;;;;5052637;28;20025;-52
2021/12/19 06:19:49;;;;;;;15.93;6.57;;;7.40;99.90;;;;;;5052814;28;20021;-52
2021/12/19 06:22:15;;;;;;;12.38;5.63;;;7.30;99.90;;;;;;5053435;28;20097;-52
2021/12/19 06:24:40;;;;;;;13.82;6.10;;;7.40;99.90;;;;;;5052524;28;20071;-50
2021/12/19 06:27:06;;;;;;;19.08;6.93;;;7.40;99.90;;;;;;5052403;28;20025;-50
2021/12/19 06:29:32;;;;;;;20.35;8.43;;;7.40;99.90;;;;;;5053645;28;20027;-51
2021/12/19 06:31:59;;;;;;;14.45;6.90;;;7.40;99.90;;;;;;5053489;28;20375;-52
2021/12/19 06:34:24;;;;;;;16.95;6.97;;;7.50;99.90;;;;;;5052362;28;20017;-50
2021/12/19 06:36:52;;;;;;;18.20;7.00;;;7.40;99.90;;;;;;5052274;28;20029;-52
2021/12/19 06:39:19;;;;;;;18.27;6.88;;;7.40;99.90;;;;;;5052318;28;20029;-49
2021/12/19 06:41:45;;;;;;;17.17;6.63;;;7.40;99.90;;;;;;5053516;28;20050;-51
2021/12/19 06:44:11;;;;;;;14.90;7.05;;;7.40;99.90;;;;;;5052237;28;20514;-51
2021/12/19 06:46:37;;;;;;;21.75;6.97;;;7.40;99.90;;;;;;5052012;28;20036;-51
2021/12/19 06:49:03;;;;;;;17.15;8.02;;;7.50;99.90;;;;;;5053260;28;20025;-54
2021/12/19 06:51:31;;;;;;;17.52;7.07;;;7.50;99.90;;;;;;5053434;28;20091;-51
2021/12/19 06:53:56;;;;;;;17.80;7.55;;;7.40;99.90;;;;;;5052377;28;20021;-50
2021/12/19 06:56:22;;;;;;;20.42;7.22;;;7.50;99.90;;;;;;5051976;28;20025;-51
2021/12/19 06:58:47;;;;;;;18.10;6.90;;;7.40;99.90;;;;;;5053243;28;20028;-49
2021/12/19 07:01:13;;;;;;;20.00;9.10;;;7.50;99.90;;;;;;5051941;28;20048;-49
2021/12/19 07:03:39;;;;;;;16.27;7.97;;;7.50;99.90;;;;;;5053189;28;20069;-53
2021/12/19 07:06:04;;;;;;;18.55;7.93;;;7.50;99.90;;;;;;5052972;28;20033;-51
2021/12/19 07:08:30;;;;;;;21.08;8.05;;;7.50;99.90;;;;;;5053141;28;20068;-49
2021/12/19 07:10:56;;;;;;;21.90;8.60;;;7.50;99.90;;;;;;5056957;28;20488;-53
2021/12/19 07:13:21;;;;;;;19.70;8.25;;;7.50;99.90;;;;;;5058465;28;20136;-52
2021/12/19 07:15:49;;;;;;;17.30;8.07;;;7.60;99.90;;;;;;5059704;28;20051;-53
2021/12/19 07:18:15;;;;;;;21.40;7.93;;;7.50;99.90;;;;;;5058460;28;20021;-51
2021/12/19 07:20:42;;;;;;;17.55;8.20;;;7.60;99.90;;;;;;5058419;28;20096;-49
2021/12/19 07:23:13;;;;;;;21.48;9.00;;;7.60;99.90;;;;;;5059927;28;20021;-52
2021/12/19 07:25:39;;;;;;;28.23;10.95;;;7.50;99.90;;;;;;5059706;28;20017;-51
2021/12/19 07:28:06;;;;;;;21.55;8.82;;;7.60;99.90;;;;;;5059945;28;20028;-50
2021/12/19 07:30:31;;;;;;;18.88;7.43;;;7.60;99.90;;;;;;5059859;28;20100;-53
2021/12/19 07:32:58;;;;;;;19.90;8.75;;;7.70;99.90;;;;;;5058355;28;20108;-54
2021/12/19 07:35:24;;;;;;;24.42;9.23;;;7.70;99.90;;;;;;5058307;28;20021;-49
2021/12/19 07:37:52;;;;;;;23.85;9.32;;;7.70;99.90;;;;;;5059610;28;20867;-52
2021/12/19 07:40:20;;;;;;;17.67;7.97;;;7.70;99.90;;;;;;5059713;28;20103;-52
2021/12/19 07:42:47;;;;;;;20.90;8.30;;;7.70;99.90;;;;;;5059516;28;20071;-52
2021/12/19 07:45:14;;;;;;;22.23;8.93;;;7.60;99.90;;;;;;5059427;28;20100;-51
2021/12/19 07:47:39;;;;;;;24.02;10.25;;;7.60;99.90;;;;;;5059513;28;20020;-50
2021/12/19 07:50:11;;;;;;;23.48;10.45;;;7.60;99.90;;;;;;5058077;28;20040;-54
2021/12/19 07:52:36;;;;;;;21.30;9.32;;;7.70;99.90;;;;;;5059684;28;20049;-51
2021/12/19 07:55:05;;;;;;;22.95;9.68;;;7.70;99.90;;;;;;5058324;28;20075;-53
2021/12/19 07:57:31;;;;;;;24.77;9.75;;;7.70;99.90;;;;;;5058392;28;20020;-49
2021/12/19 07:59:57;;;;;;;24.05;10.32;;;7.70;99.90;;;;;;5058100;28;20039;-55
2021/12/19 08:02:22;;;;;;;21.98;9.90;;;7.80;99.90;;;;;;5059393;28;20029;-51
2021/12/19 08:04:48;;;;;;;20.80;10.43;;;7.80;99.90;;;;;;5058088;28;20025;-53
2021/12/19 08:07:16;;;;;;;25.58;10.00;;;7.80;99.90;;;;;;5057950;28;20098;-52
2021/12/19 08:10:01;;;;;;;26.65;9.77;;;7.90;99.90;;;;;;5058321;28;20045;-53
2021/12/19 08:12:27;;;;;;;25.25;10.15;;;8.00;99.90;;;;;;5059361;28;20089;-52
2021/12/19 08:14:53;;;;;;;25.00;10.52;;;8.00;99.90;;;;;;5057965;28;20029;-53
2021/12/19 08:17:21;;;;;;;19.95;8.63;;;8.00;99.90;;;;;;5058324;28;20033;-51
2021/12/19 08:19:47;;;;;;;18.45;8.60;;;8.00;99.90;;;;;;5058352;28;20031;-53
2021/12/19 08:22:14;;;;;;;29.70;11.55;;;8.00;99.90;;;;;;5055567;28;20025;-54
2021/12/19 08:24:41;;;;;;;33.67;13.52;;;8.00;99.90;;;;;;5054720;28;20111;-52
2021/12/19 08:27:07;;;;;;;28.63;13.57;;;8.10;99.90;;;;;;5055918;28;20089;-52
2021/12/19 08:29:32;;;;;;;28.17;15.55;;;8.10;99.90;;;;;;5055308;28;20017;-48
2021/12/19 08:31:58;;;;;;;23.63;11.98;;;8.10;99.90;;;;;;5056467;28;20025;-51
2021/12/19 08:34:24;;;;;;;22.42;10.50;;;8.10;99.90;;;;;;5056182;28;20025;-50
2021/12/19 08:36:50;;;;;;;34.60;15.23;;;8.10;99.90;;;;;;5054527;28;20115;-53
2021/12/19 08:39:15;;;;;;;30.17;11.88;;;8.20;99.90;;;;;;5054437;28;20108;-55
2021/12/19 08:41:41;;;;;;;23.90;10.18;;;8.20;99.90;;;;;;5030246;28;20026;-51
2021/12/19 08:44:07;;;;;;;25.13;9.90;;;8.30;99.90;;;;;;5015005;28;20076;-52
2021/12/19 08:46:35;;;;;;;31.80;13.82;;;8.30;99.90;;;;;;5014881;28;20033;-52
2021/12/19 08:49:02;;;;;;;27.02;13.52;;;8.30;99.90;;;;;;5015804;28;20026;-53
2021/12/19 08:51:28;;;;;;;24.05;11.05;;;8.40;99.90;;;;;;5015431;28;20113;-54
2021/12/19 08:53:54;;;;;;;24.00;11.52;;;8.50;99.90;;;;;;5014433;28;20117;-56
2021/12/19 08:56:19;;;;;;;32.03;13.63;;;8.50;99.90;;;;;;5015585;28;20056;-52
2021/12/19 08:58:45;;;;;;;26.23;11.48;;;8.50;99.90;;;;;;5014371;28;20033;-50
2021/12/19 09:01:10;;;;;;;25.63;9.93;;;8.50;99.90;;;;;;5014767;28;20026;-51
2021/12/19 09:03:36;;;;;;;25.23;10.55;;;8.60;99.90;;;;;;5015794;28;20029;-50
2021/12/19 09:06:03;;;;;;;31.42;9.95;;;8.60;99.90;;;;;;5014204;28;20080;-54
2021/12/19 09:08:29;;;;;;;21.42;9.60;;;8.70;99.90;;;;;;5014635;28;20125;-51
2021/12/19 09:10:56;;;;;;;21.17;9.20;;;8.70;99.90;;;;;;5014226;28;20072;-53
2021/12/19 09:13:22;;;;;;;26.67;10.18;;;8.80;99.90;;;;;;5014706;28;20025;-52
2021/12/19 09:15:48;;;;;;;26.60;11.82;;;8.80;99.90;;;;;;5013976;28;20072;-52
2021/12/19 09:18:14;;;;;;;29.15;12.57;;;8.90;99.90;;;;;;5014086;28;20053;-54
2021/12/19 09:20:40;;;;;;;26.75;11.57;;;9.00;99.90;;;;;;5013948;28;20123;-50
2021/12/19 09:23:05;;;;;;;28.77;11.25;;;9.00;99.90;;;;;;5014704;28;20044;-50
2021/12/19 09:25:31;;;;;;;21.70;8.70;;;9.00;99.90;;;;;;5015011;28;20018;-50
2021/12/19 09:27:57;;;;;;;17.90;8.30;;;9.10;99.90;;;;;;5013883;28;20072;-52
2021/12/19 09:30:25;;;;;;;20.35;9.05;;;9.10;99.90;;;;;;5015033;28;20022;-52
2021/12/19 09:32:51;;;;;;;15.30;7.40;;;9.10;99.90;;;;;;5014797;28;20129;-54
2021/12/19 09:35:16;;;;;;;16.85;7.35;;;9.20;99.90;;;;;;5013728;28;20061;-53
2021/12/19 09:37:42;;;;;;;16.02;6.60;;;9.30;99.90;;;;;;5014073;28;20033;-53
2021/12/19 09:40:17;;;;;;;15.60;7.18;;;9.50;99.90;;;;;;5013978;28;20053;-54
2021/12/19 09:42:47;;;;;;;15.75;7.18;;;9.50;99.90;;;;;;5015184;28;20045;-51
2021/12/19 09:45:13;;;;;;;14.75;7.53;;;9.60;99.90;;;;;;5015449;28;20026;-54
2021/12/19 09:47:39;;;;;;;17.08;7.78;;;9.70;99.90;;;;;;5013717;28;20037;-55
2021/12/19 09:50:07;;;;;;;13.85;7.40;;;9.80;99.90;;;;;;5014698;28;20076;-55
2021/12/19 09:52:34;;;;;;;19.73;8.35;;;9.90;99.90;;;;;;5013391;28;20022;-51
2021/12/19 09:55:00;;;;;;;15.63;7.38;;;10.00;99.90;;;;;;5014834;28;20022;-53
2021/12/19 09:57:25;;;;;;;18.23;8.45;;;10.10;99.90;;;;;;5013621;28;20022;-51
2021/12/19 09:59:52;;;;;;;21.17;8.38;;;10.10;99.90;;;;;;5013239;28;20499;-51
2021/12/19 10:02:17;;;;;;;16.80;7.53;;;10.20;99.90;;;;;;5014865;28;20033;-52
2021/12/19 10:04:44;;;;;;;15.10;7.35;;;10.20;99.90;;;;;;5013291;28;20026;-56
2021/12/19 10:07:13;;;;;;;13.73;6.30;;;10.20;99.90;;;;;;5013694;28;20030;-52
2021/12/19 10:09:51;;;;;;;13.75;6.88;;;10.30;99.90;;;;;;5014359;28;20018;-53
2021/12/19 10:12:37;;;;;;;12.15;5.63;;;10.20;99.90;;;;;;5014416;28;20022;-55
2021/12/19 10:15:10;;;;;;;13.02;6.88;;;10.20;99.90;;;;;;5014763;28;20021;-50
2021/12/19 10:17:37;;;;;;;11.80;6.60;;;10.10;99.90;;;;;;5013129;28;20026;-53
2021/12/19 10:20:05;;;;;;;13.50;6.65;;;10.20;99.90;;;;;;5014264;28;20030;-50
2021/12/19 10:22:46;;;;;;;12.50;6.18;;;10.20;99.90;;;;;;5013566;28;20085;-53
2021/12/19 10:25:16;;;;;;;16.42;7.32;;;10.20;99.90;;;;;;5012970;28;20444;-54
2021/12/19 10:28:06;;;;;;;13.70;6.38;;;10.30;99.90;;;;;;5013987;28;20045;-54
2021/12/19 10:30:35;;;;;;;15.60;8.00;;;10.20;99.90;;;;;;5013105;28;20029;-52
2021/12/19 10:33:06;;;;;;;13.27;6.30;;;10.30;99.90;;;;;;5014184;28;20034;-50
2021/12/19 10:35:35;;;;;;;17.92;8.00;;;10.40;99.90;;;;;;5012675;28;20076;-53
2021/12/19 10:38:03;;;;;;;16.50;6.55;;;10.40;99.90;;;;;;5014226;28;20041;-51
2021/12/19 10:40:29;;;;;;;12.13;6.55;;;10.40;99.90;;;;;;5014541;28;20033;-52
2021/12/19 10:43:00;;;;;;;13.95;7.00;;;10.50;99.90;;;;;;5032837;28;20041;-52
2021/12/19 10:45:43;;;;;;;20.85;7.72;;;10.40;99.90;;;;;;5031454;28;20029;-54
2021/12/19 10:48:20;;;;;;;14.38;6.25;;;10.40;99.90;;;;;;5033400;28;20496;-50
2021/12/19 10:50:55;;;;;;;13.13;6.57;;;10.40;99.90;;;;;;5032096;28;20041;-51
2021/12/19 10:53:44;;;;;;;11.95;6.03;;;10.40;99.90;;;;;;5032402;28;20033;-56
2021/12/19 10:56:11;;;;;;;17.55;7.47;;;10.50;99.90;;;;;;5022757;28;20046;-55
2021/12/19 10:59:00;;;;;;;15.52;6.57;;;10.50;99.90;;;;;;5032280;28;20079;-54
2021/12/19 11:01:37;;;;;;;18.17;6.93;;;10.50;99.90;;;;;;5033224;28;20124;-56
2021/12/19 11:04:07;;;;;;;17.42;7.20;;;10.70;99.90;;;;;;5032966;28;20030;-52
2021/12/19 11:06:42;;;;;;;11.80;6.20;;;10.70;99.90;;;;;;5033207;28;20025;-55
2021/12/19 11:09:15;;;;;;;16.60;7.30;;;10.70;99.90;;;;;;5033470;28;20061;-50
2021/12/19 11:11:49;;;;;;;15.93;7.20;;;10.70;99.90;;;;;;5031684;28;20025;-55
2021/12/19 11:14:28;;;;;;;16.42;7.07;;;10.80;99.90;;;;;;5032949;28;20021;-55
2021/12/19 11:17:09;;;;;;;19.42;7.30;;;10.90;99.90;;;;;;5031545;28;20091;-50
2021/12/19 11:19:36;;;;;;;15.43;6.88;;;10.90;99.90;;;;;;5032275;28;20026;-54
2021/12/19 11:22:02;;;;;;;17.33;8.32;;;10.90;99.90;;;;;;5033140;28;20029;-50
2021/12/19 11:24:28;;;;;;;19.30;8.07;;;11.00;99.90;;;;;;5033190;28;20021;-52
2021/12/19 11:26:58;;;;;;;18.67;7.30;;;11.00;99.90;;;;;;5031665;28;20377;-56
2021/12/19 11:29:24;;;;;;;20.90;8.32;;;11.00;99.90;;;;;;5032230;28;20025;-55
2021/12/19 11:31:57;;;;;;;17.48;7.10;;;10.90;99.90;;;;;;5033048;28;20487;-55
2021/12/19 11:34:44;;;;;;;17.60;7.40;;;10.90;99.90;;;;;;5031901;28;20029;-54
2021/12/19 11:37:14;;;;;;;24.38;8.88;;;11.00;99.90;;;;;;5031717;28;20120;-52
2021/12/19 11:39:42;;;;;;;25.27;10.20;;;11.00;99.90;;;;;;5016109;28;20026;-55
2021/12/19 11:42:10;;;;;;;20.70;8.88;;;10.90;99.90;;;;;;5021699;28;20037;-56
2021/12/19 11:44:47;;;;;;;22.67;9.73;;;10.90;99.90;;;;;;5013050;28;20030;-52
2021/12/19 11:47:16;;;;;;;22.42;9.80;;;11.00;99.90;;;;;;5011883;28;20029;-53
2021/12/19 11:49:42;;;;;;;22.10;9.25;;;11.00;99.90;;;;;;5012625;28;20034;-52
2021/12/19 11:52:44;;;;;;;22.83;9.32;;;11.00;99.90;;;;;;5013556;28;20041;-54
2021/12/19 11:55:13;;;;;;;24.33;9.85;;;11.00;99.90;;;;;;5011820;28;20050;-55
2021/12/19 11:58:03;;;;;;;25.10;10.60;;;10.90;99.90;;;;;;5030116;28;20079;-53
2021/12/19 12:00:31;;;;;;;21.75;9.27;;;10.70;99.90;;;;;;5036321;28;20502;-54
2021/12/19 12:03:11;;;;;;;27.98;9.48;;;10.70;99.90;;;;;;5036519;28;20063;-51
2021/12/19 12:05:45;;;;;;;23.65;10.68;;;10.70;99.90;;;;;;5036275;28;20049;-51
2021/12/19 12:08:12;;;;;;;20.35;9.70;;;10.70;99.90;;;;;;5035101;28;20036;-54
2021/12/19 12:10:54;;;;;;;19.40;9.07;;;10.80;99.90;;;;;;5035157;28;20017;-56
2021/12/19 12:13:41;;;;;;;16.05;8.30;;;10.80;99.90;;;;;;5036269;28;20045;-51
2021/12/19 12:18:58;;;;;;;11.55;5.60;;;10.90;99.90;;;;;;5036867;28;20026;-53
2021/12/19 12:24:05;;;;;;;11.38;5.88;;;11.00;99.90;;;;;;5036720;28;20026;-56
2021/12/19 12:26:42;;;;;;;14.95;6.68;;;11.10;99.90;;;;;;5035932;28;20028;-52
2021/12/19 12:29:08;;;;;;;9.25;5.07;;;11.10;99.90;;;;;;5034894;28;20025;-53
2021/12/19 12:31:35;;;;;;;7.15;4.32;;;11.00;99.90;;;;;;5034686;28;20103;-53
2021/12/19 12:34:02;;;;;;;8.35;4.13;;;11.00;99.90;;;;;;5034734;28;20032;-53
2021/12/19 12:36:28;;;;;;;9.52;4.50;;;10.90;99.90;;;;;;5034610;28;20025;-52
2021/12/19 12:38:54;;;;;;;9.30;4.03;;;10.90;99.90;;;;;;5035003;28;20033;-52
2021/12/19 12:41:40;;;;;;;7.40;3.90;;;10.80;99.90;;;;;;5035882;28;20030;-55
2021/12/19 12:44:06;;;;;;;11.35;4.80;;;10.80;99.90;;;;;;5036136;28;20025;-52
2021/12/19 12:46:32;;;;;;;6.75;3.72;;;10.70;99.90;;;;;;5034646;28;20137;-52
2021/12/19 12:49:03;;;;;;;8.20;3.60;;;10.70;99.90;;;;;;5035712;28;20100;-53
2021/12/19 12:51:36;;;;;;;8.20;3.80;;;10.60;99.90;;;;;;5034668;28;20030;-50
2021/12/19 12:54:04;;;;;;;9.88;3.90;;;10.50;99.90;;;;;;5034379;28;20026;-51
2021/12/19 12:56:38;;;;;;;7.68;4.72;;;10.50;99.90;;;;;;5035445;28;20025;-55
2021/12/19 12:59:05;;;;;;;6.65;3.90;;;10.50;99.90;;;;;;5035602;28;20100;-50
2021/12/19 13:01:38;;;;;;;8.00;3.85;;;10.40;99.90;;;;;;5035588;28;20484;-52
2021/12/19 13:04:07;;;;;;;5.05;3.00;;;10.40;99.90;;;;;;5034226;28;20033;-51
2021/12/19 13:06:36;;;;;;;7.13;3.42;;;10.40;99.90;;;;;;5035433;28;20024;-55
2021/12/19 13:09:08;;;;;;;6.00;3.13;;;10.30;99.90;;;;;;5034784;28;20476;-52
2021/12/19 13:11:33;;;;;;;6.13;3.40;;;10.30;99.90;;;;;;5035199;28;20021;-52
2021/12/19 13:14:10;;;;;;;11.05;3.78;;;10.30;99.90;;;;;;5034285;28;20113;-50
2021/12/19 13:16:51;;;;;;;5.97;3.53;;;10.30;99.90;;;;;;5035083;28;20037;-53
2021/12/19 13:19:35;;;;;;;7.22;3.85;;;10.10;99.90;;;;;;5033837;28;20029;-51
2021/12/19 13:22:03;;;;;;;8.15;4.32;;;10.20;99.90;;;;;;5035376;28;20056;-50
2021/12/19 13:24:30;;;;;;;9.63;4.55;;;10.20;99.90;;;;;;5034104;28;20044;-53
2021/12/19 13:27:10;;;;;;;10.07;4.70;;;10.30;99.90;;;;;;5034441;28;20445;-53
2021/12/19 13:29:37;;;;;;;9.73;5.22;;;10.20;99.90;;;;;;5034996;28;20096;-55
2021/12/19 13:32:24;;;;;;;32.67;15.10;;;10.20;99.90;;;;;;5034831;28;20028;-50
2021/12/19 13:34:50;;;;;;;20.08;15.07;;;10.10;99.90;;;;;;5034921;28;20018;-53
2021/12/19 13:37:16;;;;;;;12.60;7.80;;;10.20;99.90;;;;;;5034775;28;20369;-52
2021/12/19 13:39:45;;;;;;;12.02;6.82;;;10.20;99.90;;;;;;5034816;28;20057;-53
2021/12/19 13:42:13;;;;;;;12.32;6.05;;;10.10;99.90;;;;;;5034671;28;20545;-54
2021/12/19 13:44:41;;;;;;;18.13;9.65;;;10.10;99.90;;;;;;5037803;28;20030;-56
2021/12/19 13:47:23;;;;;;;14.30;7.72;;;10.00;99.90;;;;;;5044205;28;20025;-56
2021/12/19 13:49:49;;;;;;;12.98;7.32;;;10.00;99.90;;;;;;5039104;28;20108;-54
2021/12/19 13:52:15;;;;;;;16.77;7.18;;;10.00;99.90;;;;;;5034663;28;20025;-52
2021/12/19 13:54:41;;;;;;;18.35;7.25;;;10.00;99.90;;;;;;5034481;28;20049;-53
2021/12/19 13:57:21;;;;;;;18.40;9.30;;;10.00;99.90;;;;;;5034465;28;20053;-55
2021/12/19 13:59:48;;;;;;;17.98;9.10;;;10.00;99.90;;;;;;5034294;28;20033;-51